sensor_id;sensor_type;location;lat;lon;timestamp;P1;durP1;ratioP1;P2;durP2;ratioP2
40022;SDS011;25713;-35.352;149.036;2023-02-12T00:01:47;6.57;;;2.63;;
40022;SDS011;25713;-35.352;149.036;2023-02-12T00:04:19;4.35;;;2.60;;
40022;SDS011;25713;-35.352;149.036;2023-02-12T00:06:48;7.30;;;2.70;;
40022;SDS011;25713;-35.352;149.036;2023-02-12T00:09:18;6.15;;;2.45;;
40022;SDS011;25713;-35.352;149.036;2023-02-12T00:11:47;8.73;;;2.45;;
40022;SDS011;25713;-35.352;149.036;2023-02-12T00:14:17;4.68;;;2.47;;
40022;SDS011;25713;-35.352;149.036;2023-02-12T00:16:46;9.18;;;2.75;;
40022;SDS011;25713;-35.352;149.036;2023-02-12T00:19:15;5.90;;;2.72;;
40022;SDS011;25713;-35.352;149.036;2023-02-12T00:21:47;4.15;;;2.50;;
40022;SDS011;25713;-35.352;149.036;2023-02-12T00:24:16;5.22;;;2.58;;
40022;SDS011;25713;-35.352;149.036;2023-02-12T00:26:45;4.65;;;2.70;;
40022;SDS011;25713;-35.352;149.036;2023-02-12T00:29:15;5.38;;;2.58;;
40022;SDS011;25713;-35.352;149.036;2023-02-12T00:31:45;3.95;;;2.80;;
40022;SDS011;25713;-35.352;149.036;2023-02-12T00:34:14;5.65;;;3.15;;
40022;SDS011;25713;-35.352;149.036;2023-02-12T00:36:46;5.57;;;2.78;;
40022;SDS011;25713;-35.352;149.036;2023-02-12T00:39:16;4.80;;;2.47;;
40022;SDS011;25713;-35.352;149.036;2023-02-12T00:41:45;3.47;;;2.75;;
40022;SDS011;25713;-35.352;149.036;2023-02-12T00:44:15;4.03;;;2.78;;
40022;SDS011;25713;-35.352;149.036;2023-02-12T00:46:44;4.00;;;2.50;;
40022;SDS011;25713;-35.352;149.036;2023-02-12T00:49:13;4.30;;;2.55;;
40022;SDS011;25713;-35.352;149.036;2023-02-12T00:51:43;4.80;;;2.60;;
40022;SDS011;25713;-35.352;149.036;2023-02-12T00:54:14;6.78;;;3.05;;
40022;SDS011;25713;-35.352;149.036;2023-02-12T00:56:44;4.07;;;3.00;;
40022;SDS011;25713;-35.352;149.036;2023-02-12T00:59:13;4.38;;;2.70;;
40022;SDS011;25713;-35.352;149.036;2023-02-12T01:01:43;5.43;;;2.50;;
40022;SDS011;25713;-35.352;149.036;2023-02-12T01:04:12;7.68;;;2.90;;
40022;SDS011;25713;-35.352;149.036;2023-02-12T01:06:42;6.68;;;2.60;;
40022;SDS011;25713;-35.352;149.036;2023-02-12T01:09:13;8.02;;;2.63;;
40022;SDS011;25713;-35.352;149.036;2023-02-12T01:11:43;5.63;;;2.95;;
40022;SDS011;25713;-35.352;149.036;2023-02-12T01:14:12;5.65;;;2.55;;
40022;SDS011;25713;-35.352;149.036;2023-02-12T01:16:42;5.63;;;2.75;;
40022;SDS011;25713;-35.352;149.036;2023-02-12T01:19:11;7.18;;;2.53;;
40022;SDS011;25713;-35.352;149.036;2023-02-12T01:21:41;5.95;;;2.67;;
40022;SDS011;25713;-35.352;149.036;2023-02-12T01:24:10;6.63;;;2.63;;
40022;SDS011;25713;-35.352;149.036;2023-02-12T01:26:41;4.97;;;2.87;;
40022;SDS011;25713;-35.352;149.036;2023-02-12T01:29:11;6.55;;;2.50;;
40022;SDS011;25713;-35.352;149.036;2023-02-12T01:31:41;3.40;;;2.40;;
40022;SDS011;25713;-35.352;149.036;2023-02-12T01:34:10;5.53;;;2.83;;
40022;SDS011;25713;-35.352;149.036;2023-02-12T01:36:40;7.25;;;2.70;;
40022;SDS011;25713;-35.352;149.036;2023-02-12T01:39:09;4.50;;;2.60;;
40022;SDS011;25713;-35.352;149.036;2023-02-12T01:41:42;6.53;;;2.67;;
40022;SDS011;25713;-35.352;149.036;2023-02-12T01:44:13;6.47;;;2.95;;
40022;SDS011;25713;-35.352;149.036;2023-02-12T01:46:46;4.22;;;2.45;;
40022;SDS011;25713;-35.352;149.036;2023-02-12T01:49:17;5.50;;;2.60;;
40022;SDS011;25713;-35.352;149.036;2023-02-12T01:51:49;5.60;;;2.63;;
40022;SDS011;25713;-35.352;149.036;2023-02-12T01:54:22;5.20;;;2.67;;
40022;SDS011;25713;-35.352;149.036;2023-02-12T01:56:52;6.13;;;2.45;;
40022;SDS011;25713;-35.352;149.036;2023-02-12T01:59:22;7.03;;;2.55;;
40022;SDS011;25713;-35.352;149.036;2023-02-12T02:01:52;6.85;;;2.30;;
40022;SDS011;25713;-35.352;149.036;2023-02-12T02:04:23;7.78;;;2.30;;
40022;SDS011;25713;-35.352;149.036;2023-02-12T02:06:56;3.88;;;2.03;;
40022;SDS011;25713;-35.352;149.036;2023-02-12T02:09:30;7.05;;;2.30;;
40022;SDS011;25713;-35.352;149.036;2023-02-12T02:12:02;7.10;;;2.22;;
40022;SDS011;25713;-35.352;149.036;2023-02-12T02:14:32;7.05;;;2.22;;
40022;SDS011;25713;-35.352;149.036;2023-02-12T02:17:21;4.00;;;2.13;;
40022;SDS011;25713;-35.352;149.036;2023-02-12T02:20:27;7.03;;;2.40;;
40022;SDS011;25713;-35.352;149.036;2023-02-12T02:23:25;7.30;;;2.35;;
40022;SDS011;25713;-35.352;149.036;2023-02-12T02:29:16;6.47;;;2.27;;
40022;SDS011;25713;-35.352;149.036;2023-02-12T02:32:00;5.68;;;2.20;;
40022;SDS011;25713;-35.352;149.036;2023-02-12T02:34:35;4.68;;;2.33;;
40022;SDS011;25713;-35.352;149.036;2023-02-12T02:37:12;7.43;;;2.25;;
40022;SDS011;25713;-35.352;149.036;2023-02-12T02:39:47;6.50;;;2.13;;
40022;SDS011;25713;-35.352;149.036;2023-02-12T02:42:21;6.32;;;2.60;;
40022;SDS011;25713;-35.352;149.036;2023-02-12T02:44:56;3.60;;;1.98;;
40022;SDS011;25713;-35.352;149.036;2023-02-12T02:47:32;5.88;;;2.28;;
40022;SDS011;25713;-35.352;149.036;2023-02-12T02:50:07;5.05;;;1.98;;
40022;SDS011;25713;-35.352;149.036;2023-02-12T02:52:39;6.32;;;2.20;;
40022;SDS011;25713;-35.352;149.036;2023-02-12T02:55:13;3.90;;;2.10;;
40022;SDS011;25713;-35.352;149.036;2023-02-12T02:57:46;6.65;;;2.50;;
40022;SDS011;25713;-35.352;149.036;2023-02-12T03:00:20;3.85;;;2.22;;
40022;SDS011;25713;-35.352;149.036;2023-02-12T03:02:57;5.65;;;2.03;;
40022;SDS011;25713;-35.352;149.036;2023-02-12T03:05:31;7.22;;;2.20;;
40022;SDS011;25713;-35.352;149.036;2023-02-12T03:08:04;7.38;;;2.22;;
40022;SDS011;25713;-35.352;149.036;2023-02-12T03:10:39;4.97;;;2.15;;
40022;SDS011;25713;-35.352;149.036;2023-02-12T03:13:11;6.97;;;2.10;;
40022;SDS011;25713;-35.352;149.036;2023-02-12T03:15:47;4.97;;;2.05;;
40022;SDS011;25713;-35.352;149.036;2023-02-12T03:18:24;5.50;;;1.92;;
40022;SDS011;25713;-35.352;149.036;2023-02-12T03:20:57;5.45;;;1.88;;
40022;SDS011;25713;-35.352;149.036;2023-02-12T03:23:30;5.40;;;2.08;;
40022;SDS011;25713;-35.352;149.036;2023-02-12T03:26:04;4.97;;;1.92;;
40022;SDS011;25713;-35.352;149.036;2023-02-12T03:28:38;5.20;;;2.22;;
40022;SDS011;25713;-35.352;149.036;2023-02-12T03:31:09;5.63;;;2.20;;
40022;SDS011;25713;-35.352;149.036;2023-02-12T03:33:48;7.30;;;2.00;;
40022;SDS011;25713;-35.352;149.036;2023-02-12T03:36:29;4.78;;;2.15;;
40022;SDS011;25713;-35.352;149.036;2023-02-12T03:39:06;4.53;;;2.30;;
40022;SDS011;25713;-35.352;149.036;2023-02-12T03:41:40;5.82;;;2.00;;
40022;SDS011;25713;-35.352;149.036;2023-02-12T03:44:14;4.47;;;2.28;;
40022;SDS011;25713;-35.352;149.036;2023-02-12T03:47:04;8.15;;;2.28;;
40022;SDS011;25713;-35.352;149.036;2023-02-12T03:49:45;4.32;;;2.00;;
40022;SDS011;25713;-35.352;149.036;2023-02-12T03:52:20;6.65;;;2.42;;
40022;SDS011;25713;-35.352;149.036;2023-02-12T03:54:49;5.82;;;2.38;;
40022;SDS011;25713;-35.352;149.036;2023-02-12T03:57:19;6.15;;;2.28;;
40022;SDS011;25713;-35.352;149.036;2023-02-12T03:59:52;4.72;;;2.10;;
40022;SDS011;25713;-35.352;149.036;2023-02-12T04:02:21;6.32;;;2.45;;
40022;SDS011;25713;-35.352;149.036;2023-02-12T04:04:53;5.85;;;2.30;;
40022;SDS011;25713;-35.352;149.036;2023-02-12T04:07:23;9.50;;;2.15;;
40022;SDS011;25713;-35.352;149.036;2023-02-12T04:09:52;7.68;;;2.50;;
40022;SDS011;25713;-35.352;149.036;2023-02-12T04:12:29;3.28;;;2.20;;
40022;SDS011;25713;-35.352;149.036;2023-02-12T04:18:05;7.47;;;2.50;;
40022;SDS011;25713;-35.352;149.036;2023-02-12T04:20:43;5.63;;;2.40;;
40022;SDS011;25713;-35.352;149.036;2023-02-12T04:23:29;5.85;;;2.75;;
40022;SDS011;25713;-35.352;149.036;2023-02-12T04:26:10;6.28;;;2.30;;
40022;SDS011;25713;-35.352;149.036;2023-02-12T04:28:50;5.25;;;2.53;;
40022;SDS011;25713;-35.352;149.036;2023-02-12T04:31:26;5.45;;;2.50;;
40022;SDS011;25713;-35.352;149.036;2023-02-12T04:34:04;4.85;;;2.40;;
40022;SDS011;25713;-35.352;149.036;2023-02-12T04:36:44;6.13;;;2.53;;
40022;SDS011;25713;-35.352;149.036;2023-02-12T04:39:17;6.35;;;2.50;;
40022;SDS011;25713;-35.352;149.036;2023-02-12T04:41:50;5.00;;;2.20;;
40022;SDS011;25713;-35.352;149.036;2023-02-12T04:44:21;5.10;;;2.40;;
40022;SDS011;25713;-35.352;149.036;2023-02-12T04:46:52;6.70;;;2.13;;
40022;SDS011;25713;-35.352;149.036;2023-02-12T04:49:22;4.40;;;2.17;;
40022;SDS011;25713;-35.352;149.036;2023-02-12T04:51:53;6.35;;;2.35;;
40022;SDS011;25713;-35.352;149.036;2023-02-12T04:54:23;6.57;;;2.05;;
40022;SDS011;25713;-35.352;149.036;2023-02-12T04:56:52;7.10;;;2.42;;
40022;SDS011;25713;-35.352;149.036;2023-02-12T04:59:22;5.72;;;2.38;;
40022;SDS011;25713;-35.352;149.036;2023-02-12T05:01:51;6.20;;;2.30;;
40022;SDS011;25713;-35.352;149.036;2023-02-12T05:04:21;4.35;;;2.10;;
40022;SDS011;25713;-35.352;149.036;2023-02-12T05:06:50;5.13;;;2.30;;
40022;SDS011;25713;-35.352;149.036;2023-02-12T05:09:22;5.00;;;2.20;;
40022;SDS011;25713;-35.352;149.036;2023-02-12T05:11:52;6.72;;;2.47;;
40022;SDS011;25713;-35.352;149.036;2023-02-12T05:14:23;8.50;;;2.42;;
40022;SDS011;25713;-35.352;149.036;2023-02-12T05:16:52;7.27;;;2.20;;
40022;SDS011;25713;-35.352;149.036;2023-02-12T05:19:22;5.45;;;2.20;;
40022;SDS011;25713;-35.352;149.036;2023-02-12T05:21:51;5.32;;;2.05;;
40022;SDS011;25713;-35.352;149.036;2023-02-12T05:24:22;5.78;;;2.17;;
40022;SDS011;25713;-35.352;149.036;2023-02-12T05:26:52;6.80;;;2.10;;
40022;SDS011;25713;-35.352;149.036;2023-02-12T05:29:21;6.78;;;1.90;;
40022;SDS011;25713;-35.352;149.036;2023-02-12T05:31:51;4.90;;;2.40;;
40022;SDS011;25713;-35.352;149.036;2023-02-12T05:34:20;7.22;;;2.17;;
40022;SDS011;25713;-35.352;149.036;2023-02-12T05:36:50;2.97;;;1.95;;
40022;SDS011;25713;-35.352;149.036;2023-02-12T05:39:21;6.95;;;2.10;;
40022;SDS011;25713;-35.352;149.036;2023-02-12T05:41:51;4.50;;;2.03;;
40022;SDS011;25713;-35.352;149.036;2023-02-12T05:44:20;4.20;;;2.30;;
40022;SDS011;25713;-35.352;149.036;2023-02-12T05:46:50;4.40;;;2.03;;
40022;SDS011;25713;-35.352;149.036;2023-02-12T05:49:19;8.40;;;2.08;;
40022;SDS011;25713;-35.352;149.036;2023-02-12T05:51:48;3.70;;;2.00;;
40022;SDS011;25713;-35.352;149.036;2023-02-12T05:54:18;5.28;;;1.90;;
40022;SDS011;25713;-35.352;149.036;2023-02-12T05:56:49;6.57;;;2.00;;
40022;SDS011;25713;-35.352;149.036;2023-02-12T05:59:19;5.10;;;1.95;;
40022;SDS011;25713;-35.352;149.036;2023-02-12T06:01:50;4.13;;;1.75;;
40022;SDS011;25713;-35.352;149.036;2023-02-12T06:04:20;7.15;;;2.17;;
40022;SDS011;25713;-35.352;149.036;2023-02-12T06:06:50;6.93;;;2.03;;
40022;SDS011;25713;-35.352;149.036;2023-02-12T06:09:22;6.28;;;2.10;;
40022;SDS011;25713;-35.352;149.036;2023-02-12T06:11:52;7.72;;;1.98;;
40022;SDS011;25713;-35.352;149.036;2023-02-12T06:14:21;6.88;;;1.90;;
40022;SDS011;25713;-35.352;149.036;2023-02-12T06:16:51;4.18;;;1.95;;
40022;SDS011;25713;-35.352;149.036;2023-02-12T06:19:20;5.20;;;1.90;;
40022;SDS011;25713;-35.352;149.036;2023-02-12T06:21:49;5.85;;;1.80;;
40022;SDS011;25713;-35.352;149.036;2023-02-12T06:24:19;7.00;;;1.92;;
40022;SDS011;25713;-35.352;149.036;2023-02-12T06:26:50;5.10;;;1.98;;
40022;SDS011;25713;-35.352;149.036;2023-02-12T06:29:20;4.57;;;1.63;;
40022;SDS011;25713;-35.352;149.036;2023-02-12T06:31:49;5.55;;;2.20;;
40022;SDS011;25713;-35.352;149.036;2023-02-12T06:34:18;9.38;;;2.22;;
40022;SDS011;25713;-35.352;149.036;2023-02-12T06:36:48;6.47;;;2.08;;
40022;SDS011;25713;-35.352;149.036;2023-02-12T06:39:17;5.22;;;2.15;;
40022;SDS011;25713;-35.352;149.036;2023-02-12T06:41:49;4.32;;;1.88;;
40022;SDS011;25713;-35.352;149.036;2023-02-12T06:44:18;3.80;;;1.98;;
40022;SDS011;25713;-35.352;149.036;2023-02-12T06:46:47;4.38;;;1.67;;
40022;SDS011;25713;-35.352;149.036;2023-02-12T06:49:17;7.60;;;1.90;;
40022;SDS011;25713;-35.352;149.036;2023-02-12T06:51:47;4.03;;;1.77;;
40022;SDS011;25713;-35.352;149.036;2023-02-12T06:54:16;3.70;;;1.55;;
40022;SDS011;25713;-35.352;149.036;2023-02-12T06:56:46;6.85;;;1.98;;
40022;SDS011;25713;-35.352;149.036;2023-02-12T06:59:17;3.50;;;1.65;;
40022;SDS011;25713;-35.352;149.036;2023-02-12T07:01:47;4.53;;;1.63;;
40022;SDS011;25713;-35.352;149.036;2023-02-12T07:04:16;5.65;;;1.90;;
40022;SDS011;25713;-35.352;149.036;2023-02-12T07:06:46;8.50;;;2.22;;
40022;SDS011;25713;-35.352;149.036;2023-02-12T07:09:15;5.53;;;1.90;;
40022;SDS011;25713;-35.352;149.036;2023-02-12T07:11:45;3.55;;;2.00;;
40022;SDS011;25713;-35.352;149.036;2023-02-12T07:14:17;4.22;;;1.88;;
40022;SDS011;25713;-35.352;149.036;2023-02-12T07:16:46;8.73;;;2.03;;
40022;SDS011;25713;-35.352;149.036;2023-02-12T07:19:15;4.15;;;1.70;;
40022;SDS011;25713;-35.352;149.036;2023-02-12T07:21:45;6.60;;;1.58;;
40022;SDS011;25713;-35.352;149.036;2023-02-12T07:24:15;3.03;;;1.63;;
40022;SDS011;25713;-35.352;149.036;2023-02-12T07:26:44;5.00;;;1.80;;
40022;SDS011;25713;-35.352;149.036;2023-02-12T07:29:14;5.57;;;2.13;;
40022;SDS011;25713;-35.352;149.036;2023-02-12T07:31:45;4.32;;;1.80;;
40022;SDS011;25713;-35.352;149.036;2023-02-12T07:34:15;3.28;;;1.70;;
40022;SDS011;25713;-35.352;149.036;2023-02-12T07:36:44;6.18;;;1.90;;
40022;SDS011;25713;-35.352;149.036;2023-02-12T07:39:14;4.43;;;1.80;;
40022;SDS011;25713;-35.352;149.036;2023-02-12T07:41:43;7.53;;;2.10;;
40022;SDS011;25713;-35.352;149.036;2023-02-12T07:44:13;4.93;;;1.98;;
40022;SDS011;25713;-35.352;149.036;2023-02-12T07:46:45;5.30;;;1.67;;
40022;SDS011;25713;-35.352;149.036;2023-02-12T07:49:16;4.93;;;1.98;;
40022;SDS011;25713;-35.352;149.036;2023-02-12T07:51:46;5.80;;;1.90;;
40022;SDS011;25713;-35.352;149.036;2023-02-12T07:54:16;6.68;;;2.33;;
40022;SDS011;25713;-35.352;149.036;2023-02-12T07:56:46;5.50;;;2.40;;
40022;SDS011;25713;-35.352;149.036;2023-02-12T07:59:16;8.60;;;2.92;;
40022;SDS011;25713;-35.352;149.036;2023-02-12T08:01:49;7.82;;;3.25;;
40022;SDS011;25713;-35.352;149.036;2023-02-12T08:04:19;9.90;;;4.10;;
40022;SDS011;25713;-35.352;149.036;2023-02-12T08:06:50;9.43;;;3.67;;
40022;SDS011;25713;-35.352;149.036;2023-02-12T08:09:22;11.15;;;4.10;;
40022;SDS011;25713;-35.352;149.036;2023-02-12T08:11:53;12.32;;;4.10;;
40022;SDS011;25713;-35.352;149.036;2023-02-12T08:14:23;9.52;;;4.70;;
40022;SDS011;25713;-35.352;149.036;2023-02-12T08:16:55;6.97;;;3.97;;
40022;SDS011;25713;-35.352;149.036;2023-02-12T08:19:25;6.75;;;3.95;;
40022;SDS011;25713;-35.352;149.036;2023-02-12T08:21:55;9.00;;;4.25;;
40022;SDS011;25713;-35.352;149.036;2023-02-12T08:24:25;8.20;;;4.40;;
40022;SDS011;25713;-35.352;149.036;2023-02-12T08:26:54;9.70;;;4.50;;
40022;SDS011;25713;-35.352;149.036;2023-02-12T08:29:25;8.40;;;4.10;;
40022;SDS011;25713;-35.352;149.036;2023-02-12T08:31:58;7.70;;;4.38;;
40022;SDS011;25713;-35.352;149.036;2023-02-12T08:34:28;6.30;;;4.00;;
40022;SDS011;25713;-35.352;149.036;2023-02-12T08:36:59;8.93;;;4.38;;
40022;SDS011;25713;-35.352;149.036;2023-02-12T08:39:30;10.77;;;4.88;;
40022;SDS011;25713;-35.352;149.036;2023-02-12T08:42:01;9.95;;;4.68;;
40022;SDS011;25713;-35.352;149.036;2023-02-12T08:44:30;8.70;;;4.28;;
40022;SDS011;25713;-35.352;149.036;2023-02-12T08:47:02;10.35;;;4.32;;
40022;SDS011;25713;-35.352;149.036;2023-02-12T08:49:31;8.85;;;4.85;;
40022;SDS011;25713;-35.352;149.036;2023-02-12T08:52:01;7.97;;;4.45;;
40022;SDS011;25713;-35.352;149.036;2023-02-12T08:54:30;6.38;;;4.10;;
40022;SDS011;25713;-35.352;149.036;2023-02-12T08:57:00;9.63;;;4.78;;
40022;SDS011;25713;-35.352;149.036;2023-02-12T08:59:30;6.38;;;3.90;;
40022;SDS011;25713;-35.352;149.036;2023-02-12T09:02:01;9.05;;;4.43;;
40022;SDS011;25713;-35.352;149.036;2023-02-12T09:04:31;6.40;;;4.20;;
40022;SDS011;25713;-35.352;149.036;2023-02-12T09:07:00;7.90;;;4.32;;
40022;SDS011;25713;-35.352;149.036;2023-02-12T09:09:30;6.22;;;3.97;;
40022;SDS011;25713;-35.352;149.036;2023-02-12T09:11:59;9.07;;;4.22;;
40022;SDS011;25713;-35.352;149.036;2023-02-12T09:14:28;5.63;;;3.60;;
40022;SDS011;25713;-35.352;149.036;2023-02-12T09:16:58;7.45;;;4.18;;
40022;SDS011;25713;-35.352;149.036;2023-02-12T09:19:30;6.77;;;3.63;;
40022;SDS011;25713;-35.352;149.036;2023-02-12T09:21:59;7.20;;;4.28;;
40022;SDS011;25713;-35.352;149.036;2023-02-12T09:24:28;6.15;;;3.80;;
40022;SDS011;25713;-35.352;149.036;2023-02-12T09:26:58;5.75;;;3.45;;
40022;SDS011;25713;-35.352;149.036;2023-02-12T09:29:27;5.72;;;3.60;;
40022;SDS011;25713;-35.352;149.036;2023-02-12T09:31:57;5.13;;;3.70;;
40022;SDS011;25713;-35.352;149.036;2023-02-12T09:34:28;6.32;;;3.75;;
40022;SDS011;25713;-35.352;149.036;2023-02-12T09:37:00;5.25;;;3.40;;
40022;SDS011;25713;-35.352;149.036;2023-02-12T09:39:29;5.53;;;3.38;;
40022;SDS011;25713;-35.352;149.036;2023-02-12T09:44:49;5.18;;;3.20;;
40022;SDS011;25713;-35.352;149.036;2023-02-12T09:47:29;6.15;;;3.45;;
40022;SDS011;25713;-35.352;149.036;2023-02-12T09:50:25;4.22;;;2.92;;
40022;SDS011;25713;-35.352;149.036;2023-02-12T09:52:58;5.88;;;3.30;;
40022;SDS011;25713;-35.352;149.036;2023-02-12T09:55:29;6.03;;;3.28;;
40022;SDS011;25713;-35.352;149.036;2023-02-12T09:58:00;4.40;;;2.90;;
40022;SDS011;25713;-35.352;149.036;2023-02-12T10:00:34;5.18;;;3.00;;
40022;SDS011;25713;-35.352;149.036;2023-02-12T10:03:03;4.72;;;3.05;;
40022;SDS011;25713;-35.352;149.036;2023-02-12T10:05:41;5.07;;;2.88;;
40022;SDS011;25713;-35.352;149.036;2023-02-12T10:08:28;2.83;;;2.53;;
40022;SDS011;25713;-35.352;149.036;2023-02-12T10:11:14;3.22;;;2.75;;
40022;SDS011;25713;-35.352;149.036;2023-02-12T10:13:59;2.78;;;2.58;;
40022;SDS011;25713;-35.352;149.036;2023-02-12T10:16:43;3.45;;;2.40;;
40022;SDS011;25713;-35.352;149.036;2023-02-12T10:19:25;2.40;;;2.20;;
40022;SDS011;25713;-35.352;149.036;2023-02-12T10:22:09;5.55;;;2.63;;
40022;SDS011;25713;-35.352;149.036;2023-02-12T10:27:46;2.78;;;2.10;;
40022;SDS011;25713;-35.352;149.036;2023-02-12T10:30:18;2.47;;;2.22;;
40022;SDS011;25713;-35.352;149.036;2023-02-12T10:32:51;2.50;;;2.20;;
40022;SDS011;25713;-35.352;149.036;2023-02-12T10:35:31;4.57;;;2.35;;
40022;SDS011;25713;-35.352;149.036;2023-02-12T10:38:05;3.13;;;2.30;;
40022;SDS011;25713;-35.352;149.036;2023-02-12T10:40:42;4.07;;;2.10;;
40022;SDS011;25713;-35.352;149.036;2023-02-12T10:43:16;3.90;;;2.17;;
40022;SDS011;25713;-35.352;149.036;2023-02-12T10:45:46;3.83;;;2.20;;
40022;SDS011;25713;-35.352;149.036;2023-02-12T10:48:17;2.70;;;2.10;;
40022;SDS011;25713;-35.352;149.036;2023-02-12T10:50:56;2.58;;;1.80;;
40022;SDS011;25713;-35.352;149.036;2023-02-12T10:53:47;2.83;;;2.00;;
40022;SDS011;25713;-35.352;149.036;2023-02-12T10:56:17;2.42;;;1.70;;
40022;SDS011;25713;-35.352;149.036;2023-02-12T10:58:53;2.42;;;1.95;;
40022;SDS011;25713;-35.352;149.036;2023-02-12T11:01:25;2.58;;;1.90;;
40022;SDS011;25713;-35.352;149.036;2023-02-12T11:03:57;2.08;;;1.70;;
40022;SDS011;25713;-35.352;149.036;2023-02-12T11:06:28;2.33;;;1.45;;
40022;SDS011;25713;-35.352;149.036;2023-02-12T11:09:01;3.50;;;1.63;;
40022;SDS011;25713;-35.352;149.036;2023-02-12T11:11:36;2.13;;;1.73;;
40022;SDS011;25713;-35.352;149.036;2023-02-12T11:14:08;1.88;;;1.50;;
40022;SDS011;25713;-35.352;149.036;2023-02-12T11:16:50;2.85;;;1.30;;
40022;SDS011;25713;-35.352;149.036;2023-02-12T11:19:26;1.63;;;1.30;;
40022;SDS011;25713;-35.352;149.036;2023-02-12T11:22:04;1.55;;;1.20;;
40022;SDS011;25713;-35.352;149.036;2023-02-12T11:24:38;1.15;;;1.00;;
40022;SDS011;25713;-35.352;149.036;2023-02-12T11:27:17;2.05;;;1.13;;
40022;SDS011;25713;-35.352;149.036;2023-02-12T11:30:03;1.10;;;1.00;;
40022;SDS011;25713;-35.352;149.036;2023-02-12T11:32:43;2.58;;;1.02;;
40022;SDS011;25713;-35.352;149.036;2023-02-12T11:35:14;2.05;;;0.90;;
40022;SDS011;25713;-35.352;149.036;2023-02-12T11:37:48;0.95;;;0.75;;
40022;SDS011;25713;-35.352;149.036;2023-02-12T11:40:26;0.80;;;0.80;;
40022;SDS011;25713;-35.352;149.036;2023-02-12T11:42:58;0.90;;;0.70;;
40022;SDS011;25713;-35.352;149.036;2023-02-12T11:45:35;1.67;;;1.00;;
40022;SDS011;25713;-35.352;149.036;2023-02-12T11:48:16;1.17;;;0.80;;
40022;SDS011;25713;-35.352;149.036;2023-02-12T11:50:49;0.70;;;0.70;;
40022;SDS011;25713;-35.352;149.036;2023-02-12T11:53:22;1.90;;;0.80;;
40022;SDS011;25713;-35.352;149.036;2023-02-12T11:55:57;2.95;;;1.00;;
40022;SDS011;25713;-35.352;149.036;2023-02-12T11:58:28;0.60;;;0.60;;
40022;SDS011;25713;-35.352;149.036;2023-02-12T12:01:05;0.77;;;0.70;;
40022;SDS011;25713;-35.352;149.036;2023-02-12T12:03:42;1.23;;;0.90;;
40022;SDS011;25713;-35.352;149.036;2023-02-12T12:06:18;1.20;;;0.80;;
40022;SDS011;25713;-35.352;149.036;2023-02-12T12:09:00;1.60;;;0.80;;
40022;SDS011;25713;-35.352;149.036;2023-02-12T12:11:36;1.15;;;0.85;;
40022;SDS011;25713;-35.352;149.036;2023-02-12T12:14:13;2.03;;;0.85;;
40022;SDS011;25713;-35.352;149.036;2023-02-12T12:16:51;1.88;;;0.70;;
40022;SDS011;25713;-35.352;149.036;2023-02-12T12:19:27;1.27;;;0.90;;
40022;SDS011;25713;-35.352;149.036;2023-02-12T12:22:03;2.05;;;1.00;;
40022;SDS011;25713;-35.352;149.036;2023-02-12T12:24:39;3.15;;;0.90;;
40022;SDS011;25713;-35.352;149.036;2023-02-12T12:27:18;1.50;;;0.90;;
40022;SDS011;25713;-35.352;149.036;2023-02-12T12:29:52;1.95;;;1.10;;
40022;SDS011;25713;-35.352;149.036;2023-02-12T12:32:25;1.42;;;0.90;;
40022;SDS011;25713;-35.352;149.036;2023-02-12T12:34:58;1.50;;;1.15;;
40022;SDS011;25713;-35.352;149.036;2023-02-12T12:37:29;2.97;;;1.00;;
40022;SDS011;25713;-35.352;149.036;2023-02-12T12:43:07;1.75;;;1.00;;
40022;SDS011;25713;-35.352;149.036;2023-02-12T12:45:55;2.03;;;1.20;;
40022;SDS011;25713;-35.352;149.036;2023-02-12T12:48:41;1.05;;;0.90;;
40022;SDS011;25713;-35.352;149.036;2023-02-12T12:51:25;1.13;;;1.02;;
40022;SDS011;25713;-35.352;149.036;2023-02-12T12:54:11;1.30;;;1.00;;
40022;SDS011;25713;-35.352;149.036;2023-02-12T12:56:51;2.33;;;1.10;;
40022;SDS011;25713;-35.352;149.036;2023-02-12T12:59:55;1.00;;;0.90;;
40022;SDS011;25713;-35.352;149.036;2023-02-12T13:08:43;2.20;;;1.02;;
40022;SDS011;25713;-35.352;149.036;2023-02-12T13:11:28;2.60;;;1.35;;
40022;SDS011;25713;-35.352;149.036;2023-02-12T13:14:13;1.58;;;1.00;;
40022;SDS011;25713;-35.352;149.036;2023-02-12T13:17:08;2.78;;;1.05;;
40022;SDS011;25713;-35.352;149.036;2023-02-12T13:19:49;1.30;;;0.98;;
40022;SDS011;25713;-35.352;149.036;2023-02-12T13:22:26;1.30;;;1.00;;
40022;SDS011;25713;-35.352;149.036;2023-02-12T13:25:03;1.45;;;0.82;;
40022;SDS011;25713;-35.352;149.036;2023-02-12T13:27:42;1.50;;;0.80;;
40022;SDS011;25713;-35.352;149.036;2023-02-12T13:30:17;1.13;;;1.00;;
40022;SDS011;25713;-35.352;149.036;2023-02-12T13:32:54;1.27;;;0.90;;
40022;SDS011;25713;-35.352;149.036;2023-02-12T13:35:32;1.17;;;0.88;;
40022;SDS011;25713;-35.352;149.036;2023-02-12T13:38:06;1.25;;;0.90;;
40022;SDS011;25713;-35.352;149.036;2023-02-12T13:40:41;1.55;;;1.00;;
40022;SDS011;25713;-35.352;149.036;2023-02-12T13:46:07;1.20;;;1.10;;
40022;SDS011;25713;-35.352;149.036;2023-02-12T13:48:46;1.65;;;0.90;;
40022;SDS011;25713;-35.352;149.036;2023-02-12T13:51:25;1.10;;;0.93;;
40022;SDS011;25713;-35.352;149.036;2023-02-12T13:54:08;1.27;;;0.87;;
40022;SDS011;25713;-35.352;149.036;2023-02-12T13:56:47;2.30;;;1.23;;
40022;SDS011;25713;-35.352;149.036;2023-02-12T14:02:23;1.13;;;1.02;;
40022;SDS011;25713;-35.352;149.036;2023-02-12T14:05:13;2.13;;;0.95;;
40022;SDS011;25713;-35.352;149.036;2023-02-12T14:07:48;1.42;;;0.95;;
40022;SDS011;25713;-35.352;149.036;2023-02-12T14:10:20;1.07;;;0.90;;
40022;SDS011;25713;-35.352;149.036;2023-02-12T14:12:55;1.27;;;1.05;;
40022;SDS011;25713;-35.352;149.036;2023-02-12T14:15:36;1.33;;;1.02;;
40022;SDS011;25713;-35.352;149.036;2023-02-12T14:27:43;1.20;;;0.90;;
40022;SDS011;25713;-35.352;149.036;2023-02-12T14:30:25;1.50;;;1.10;;
40022;SDS011;25713;-35.352;149.036;2023-02-12T14:41:32;1.33;;;0.77;;
40022;SDS011;25713;-35.352;149.036;2023-02-12T14:47:08;1.50;;;1.05;;
40022;SDS011;25713;-35.352;149.036;2023-02-12T14:49:43;1.25;;;1.13;;
40022;SDS011;25713;-35.352;149.036;2023-02-12T15:52:29;1.55;;;1.10;;
40022;SDS011;25713;-35.352;149.036;2023-02-12T15:55:01;1.70;;;1.33;;
40022;SDS011;25713;-35.352;149.036;2023-02-12T15:57:32;2.40;;;1.23;;
40022;SDS011;25713;-35.352;149.036;2023-02-12T16:00:03;2.65;;;1.17;;
40022;SDS011;25713;-35.352;149.036;2023-02-12T16:02:41;1.42;;;1.20;;
40022;SDS011;25713;-35.352;149.036;2023-02-12T16:05:18;2.72;;;1.23;;
40022;SDS011;25713;-35.352;149.036;2023-02-12T16:07:50;1.85;;;1.15;;
40022;SDS011;25713;-35.352;149.036;2023-02-12T16:10:19;2.47;;;1.50;;
40022;SDS011;25713;-35.352;149.036;2023-02-12T16:12:49;3.38;;;1.65;;
40022;SDS011;25713;-35.352;149.036;2023-02-12T16:15:24;6.05;;;1.50;;
40022;SDS011;25713;-35.352;149.036;2023-02-12T16:17:55;6.28;;;1.58;;
40022;SDS011;25713;-35.352;149.036;2023-02-12T16:20:26;4.28;;;1.33;;
40022;SDS011;25713;-35.352;149.036;2023-02-12T16:22:58;5.53;;;1.42;;
40022;SDS011;25713;-35.352;149.036;2023-02-12T16:25:33;6.25;;;1.67;;
40022;SDS011;25713;-35.352;149.036;2023-02-12T16:28:03;8.20;;;1.58;;
40022;SDS011;25713;-35.352;149.036;2023-02-12T16:30:34;5.70;;;1.58;;
40022;SDS011;25713;-35.352;149.036;2023-02-12T16:33:05;8.60;;;2.08;;